sensor_id;sensor_type;location;lat;lon;timestamp;P1;durP1;ratioP1;P2;durP2;ratioP2
10882;SDS011;5494;51.796;10.952;2023-02-18T00:01:41;3.17;;;0.90;;
10882;SDS011;5494;51.796;10.952;2023-02-18T00:04:09;2.97;;;1.20;;
10882;SDS011;5494;51.796;10.952;2023-02-18T00:06:37;2.67;;;0.80;;
10882;SDS011;5494;51.796;10.952;2023-02-18T00:09:06;2.17;;;0.80;;
10882;SDS011;5494;51.796;10.952;2023-02-18T00:11:35;4.93;;;1.00;;
10882;SDS011;5494;51.796;10.952;2023-02-18T00:14:05;3.57;;;1.23;;
10882;SDS011;5494;51.796;10.952;2023-02-18T00:16:38;5.83;;;1.10;;
10882;SDS011;5494;51.796;10.952;2023-02-18T00:19:10;2.97;;;0.80;;
10882;SDS011;5494;51.796;10.952;2023-02-18T00:21:41;2.13;;;0.90;;
10882;SDS011;5494;51.796;10.952;2023-02-18T00:24:13;3.53;;;0.93;;
10882;SDS011;5494;51.796;10.952;2023-02-18T00:26:42;2.20;;;0.90;;
10882;SDS011;5494;51.796;10.952;2023-02-18T00:29:12;5.80;;;0.93;;
10882;SDS011;5494;51.796;10.952;2023-02-18T00:31:41;4.00;;;1.60;;
10882;SDS011;5494;51.796;10.952;2023-02-18T00:34:09;3.77;;;1.60;;
10882;SDS011;5494;51.796;10.952;2023-02-18T00:36:39;2.90;;;0.80;;
10882;SDS011;5494;51.796;10.952;2023-02-18T00:39:09;2.97;;;0.97;;
10882;SDS011;5494;51.796;10.952;2023-02-18T00:41:39;4.40;;;0.93;;
10882;SDS011;5494;51.796;10.952;2023-02-18T00:44:08;5.13;;;1.10;;
10882;SDS011;5494;51.796;10.952;2023-02-18T00:46:37;4.73;;;1.30;;
10882;SDS011;5494;51.796;10.952;2023-02-18T00:49:07;4.30;;;1.10;;
10882;SDS011;5494;51.796;10.952;2023-02-18T00:51:36;5.20;;;0.90;;
10882;SDS011;5494;51.796;10.952;2023-02-18T00:54:05;3.77;;;0.67;;
10882;SDS011;5494;51.796;10.952;2023-02-18T00:56:33;4.53;;;1.00;;
10882;SDS011;5494;51.796;10.952;2023-02-18T00:59:02;2.40;;;0.97;;
10882;SDS011;5494;51.796;10.952;2023-02-18T01:01:30;4.80;;;0.90;;
10882;SDS011;5494;51.796;10.952;2023-02-18T01:03:58;5.70;;;1.00;;
10882;SDS011;5494;51.796;10.952;2023-02-18T01:06:27;2.90;;;0.87;;
10882;SDS011;5494;51.796;10.952;2023-02-18T01:08:55;1.50;;;0.80;;
10882;SDS011;5494;51.796;10.952;2023-02-18T01:11:23;4.40;;;1.37;;
10882;SDS011;5494;51.796;10.952;2023-02-18T01:13:52;3.43;;;1.07;;
10882;SDS011;5494;51.796;10.952;2023-02-18T01:16:20;5.13;;;1.13;;
10882;SDS011;5494;51.796;10.952;2023-02-18T01:18:48;6.70;;;1.00;;
10882;SDS011;5494;51.796;10.952;2023-02-18T01:21:16;4.23;;;1.00;;
10882;SDS011;5494;51.796;10.952;2023-02-18T01:23:46;4.13;;;1.40;;
10882;SDS011;5494;51.796;10.952;2023-02-18T01:26:14;2.90;;;1.40;;
10882;SDS011;5494;51.796;10.952;2023-02-18T01:28:42;5.33;;;1.20;;
10882;SDS011;5494;51.796;10.952;2023-02-18T01:31:11;4.40;;;1.60;;
10882;SDS011;5494;51.796;10.952;2023-02-18T01:33:40;6.53;;;1.70;;
10882;SDS011;5494;51.796;10.952;2023-02-18T01:36:09;2.93;;;1.60;;
10882;SDS011;5494;51.796;10.952;2023-02-18T01:38:38;4.30;;;1.63;;
10882;SDS011;5494;51.796;10.952;2023-02-18T01:41:07;5.97;;;1.90;;
10882;SDS011;5494;51.796;10.952;2023-02-18T01:43:38;7.00;;;1.83;;
10882;SDS011;5494;51.796;10.952;2023-02-18T01:46:13;8.97;;;2.07;;
10882;SDS011;5494;51.796;10.952;2023-02-18T01:48:46;5.90;;;2.10;;
10882;SDS011;5494;51.796;10.952;2023-02-18T01:51:20;7.73;;;1.90;;
10882;SDS011;5494;51.796;10.952;2023-02-18T01:53:53;18.30;;;2.57;;
10882;SDS011;5494;51.796;10.952;2023-02-18T01:56:29;3.77;;;1.80;;
10882;SDS011;5494;51.796;10.952;2023-02-18T01:59:05;4.50;;;2.13;;
10882;SDS011;5494;51.796;10.952;2023-02-18T02:01:39;5.33;;;2.13;;
10882;SDS011;5494;51.796;10.952;2023-02-18T02:04:12;5.23;;;2.07;;
10882;SDS011;5494;51.796;10.952;2023-02-18T02:06:43;7.27;;;2.60;;
10882;SDS011;5494;51.796;10.952;2023-02-18T02:09:11;6.30;;;2.87;;
10882;SDS011;5494;51.796;10.952;2023-02-18T02:12:09;8.50;;;2.93;;
10882;SDS011;5494;51.796;10.952;2023-02-18T02:15:07;6.43;;;2.30;;
10882;SDS011;5494;51.796;10.952;2023-02-18T02:18:03;7.03;;;2.57;;
10882;SDS011;5494;51.796;10.952;2023-02-18T02:20:57;8.07;;;2.20;;
10882;SDS011;5494;51.796;10.952;2023-02-18T02:24:33;7.43;;;2.77;;
10882;SDS011;5494;51.796;10.952;2023-02-18T02:27:27;8.80;;;3.00;;
10882;SDS011;5494;51.796;10.952;2023-02-18T02:30:16;6.90;;;2.77;;
10882;SDS011;5494;51.796;10.952;2023-02-18T02:36:22;7.37;;;3.23;;
10882;SDS011;5494;51.796;10.952;2023-02-18T02:39:02;5.50;;;2.80;;
10882;SDS011;5494;51.796;10.952;2023-02-18T02:41:47;10.27;;;3.00;;
10882;SDS011;5494;51.796;10.952;2023-02-18T02:44:29;8.37;;;3.27;;
10882;SDS011;5494;51.796;10.952;2023-02-18T02:47:07;10.20;;;2.97;;
10882;SDS011;5494;51.796;10.952;2023-02-18T02:49:47;10.07;;;3.50;;
10882;SDS011;5494;51.796;10.952;2023-02-18T02:52:29;7.57;;;3.63;;
10882;SDS011;5494;51.796;10.952;2023-02-18T02:55:04;9.30;;;3.23;;
10882;SDS011;5494;51.796;10.952;2023-02-18T02:57:43;9.60;;;3.27;;
10882;SDS011;5494;51.796;10.952;2023-02-18T03:00:21;6.60;;;3.43;;
10882;SDS011;5494;51.796;10.952;2023-02-18T03:03:10;7.73;;;3.57;;
10882;SDS011;5494;51.796;10.952;2023-02-18T03:06:15;6.60;;;2.60;;
10882;SDS011;5494;51.796;10.952;2023-02-18T03:09:19;6.57;;;3.07;;
10882;SDS011;5494;51.796;10.952;2023-02-18T03:12:02;7.23;;;3.20;;
10882;SDS011;5494;51.796;10.952;2023-02-18T03:14:40;7.10;;;2.63;;
10882;SDS011;5494;51.796;10.952;2023-02-18T03:17:19;7.77;;;3.23;;
10882;SDS011;5494;51.796;10.952;2023-02-18T03:19:54;6.43;;;3.13;;
10882;SDS011;5494;51.796;10.952;2023-02-18T03:22:33;5.03;;;2.90;;
10882;SDS011;5494;51.796;10.952;2023-02-18T03:25:09;9.43;;;3.47;;
10882;SDS011;5494;51.796;10.952;2023-02-18T03:27:40;5.57;;;3.07;;
10882;SDS011;5494;51.796;10.952;2023-02-18T03:30:17;6.60;;;3.60;;
10882;SDS011;5494;51.796;10.952;2023-02-18T03:32:54;6.87;;;2.53;;
10882;SDS011;5494;51.796;10.952;2023-02-18T03:35:26;7.67;;;2.60;;
10882;SDS011;5494;51.796;10.952;2023-02-18T03:37:57;8.60;;;3.20;;
10882;SDS011;5494;51.796;10.952;2023-02-18T03:40:34;6.77;;;2.93;;
10882;SDS011;5494;51.796;10.952;2023-02-18T03:43:03;9.87;;;3.50;;
10882;SDS011;5494;51.796;10.952;2023-02-18T03:45:31;5.73;;;2.73;;
10882;SDS011;5494;51.796;10.952;2023-02-18T03:47:59;7.33;;;2.80;;
10882;SDS011;5494;51.796;10.952;2023-02-18T03:50:28;8.40;;;3.13;;
10882;SDS011;5494;51.796;10.952;2023-02-18T03:52:55;7.40;;;3.53;;
10882;SDS011;5494;51.796;10.952;2023-02-18T03:55:25;6.90;;;3.17;;
10882;SDS011;5494;51.796;10.952;2023-02-18T03:57:54;7.17;;;3.30;;
10882;SDS011;5494;51.796;10.952;2023-02-18T04:00:22;6.23;;;3.43;;
10882;SDS011;5494;51.796;10.952;2023-02-18T04:02:51;9.30;;;3.27;;
10882;SDS011;5494;51.796;10.952;2023-02-18T04:05:19;4.83;;;2.90;;
10882;SDS011;5494;51.796;10.952;2023-02-18T04:07:47;7.33;;;3.63;;
10882;SDS011;5494;51.796;10.952;2023-02-18T04:10:15;8.33;;;3.60;;
10882;SDS011;5494;51.796;10.952;2023-02-18T04:12:43;10.50;;;3.60;;
10882;SDS011;5494;51.796;10.952;2023-02-18T04:15:14;12.30;;;5.07;;
10882;SDS011;5494;51.796;10.952;2023-02-18T04:17:42;8.47;;;3.53;;
10882;SDS011;5494;51.796;10.952;2023-02-18T04:20:10;6.03;;;3.27;;
10882;SDS011;5494;51.796;10.952;2023-02-18T04:22:38;9.60;;;4.40;;
10882;SDS011;5494;51.796;10.952;2023-02-18T04:25:06;6.97;;;3.90;;
10882;SDS011;5494;51.796;10.952;2023-02-18T04:27:35;10.63;;;4.40;;
10882;SDS011;5494;51.796;10.952;2023-02-18T04:30:03;6.17;;;3.77;;
10882;SDS011;5494;51.796;10.952;2023-02-18T04:32:34;6.77;;;3.90;;
10882;SDS011;5494;51.796;10.952;2023-02-18T04:35:02;6.17;;;4.00;;
10882;SDS011;5494;51.796;10.952;2023-02-18T04:37:31;7.00;;;4.20;;
10882;SDS011;5494;51.796;10.952;2023-02-18T04:39:59;7.30;;;4.50;;
10882;SDS011;5494;51.796;10.952;2023-02-18T04:42:27;6.83;;;4.27;;
10882;SDS011;5494;51.796;10.952;2023-02-18T04:44:55;6.53;;;4.20;;
10882;SDS011;5494;51.796;10.952;2023-02-18T04:47:23;7.37;;;3.87;;
10882;SDS011;5494;51.796;10.952;2023-02-18T04:49:52;8.20;;;4.93;;
10882;SDS011;5494;51.796;10.952;2023-02-18T04:52:20;9.60;;;4.60;;
10882;SDS011;5494;51.796;10.952;2023-02-18T04:54:48;9.47;;;5.03;;
10882;SDS011;5494;51.796;10.952;2023-02-18T04:57:16;9.17;;;4.80;;
10882;SDS011;5494;51.796;10.952;2023-02-18T04:59:44;8.00;;;4.70;;
10882;SDS011;5494;51.796;10.952;2023-02-18T05:02:12;8.03;;;4.90;;
10882;SDS011;5494;51.796;10.952;2023-02-18T05:04:40;9.33;;;4.87;;
10882;SDS011;5494;51.796;10.952;2023-02-18T05:07:09;7.93;;;4.93;;
10882;SDS011;5494;51.796;10.952;2023-02-18T05:09:38;9.60;;;4.90;;
10882;SDS011;5494;51.796;10.952;2023-02-18T05:12:06;8.83;;;4.53;;
10882;SDS011;5494;51.796;10.952;2023-02-18T05:14:34;7.40;;;4.43;;
10882;SDS011;5494;51.796;10.952;2023-02-18T05:17:02;6.67;;;4.13;;
10882;SDS011;5494;51.796;10.952;2023-02-18T05:19:30;6.73;;;4.23;;
10882;SDS011;5494;51.796;10.952;2023-02-18T05:21:58;8.60;;;4.43;;
10882;SDS011;5494;51.796;10.952;2023-02-18T05:24:27;6.97;;;4.10;;
10882;SDS011;5494;51.796;10.952;2023-02-18T05:26:55;8.20;;;4.07;;
10882;SDS011;5494;51.796;10.952;2023-02-18T05:29:23;6.57;;;3.77;;
10882;SDS011;5494;51.796;10.952;2023-02-18T05:31:51;6.40;;;3.50;;
10882;SDS011;5494;51.796;10.952;2023-02-18T05:34:19;6.47;;;4.30;;
10882;SDS011;5494;51.796;10.952;2023-02-18T05:36:47;7.60;;;3.63;;
10882;SDS011;5494;51.796;10.952;2023-02-18T05:39:15;11.40;;;4.00;;
10882;SDS011;5494;51.796;10.952;2023-02-18T05:41:44;6.13;;;3.47;;
10882;SDS011;5494;51.796;10.952;2023-02-18T05:44:13;5.10;;;3.07;;
10882;SDS011;5494;51.796;10.952;2023-02-18T05:46:59;6.47;;;3.53;;
10882;SDS011;5494;51.796;10.952;2023-02-18T05:49:31;5.60;;;3.33;;
10882;SDS011;5494;51.796;10.952;2023-02-18T05:52:01;5.60;;;3.70;;
10882;SDS011;5494;51.796;10.952;2023-02-18T05:54:30;8.60;;;3.87;;
10882;SDS011;5494;51.796;10.952;2023-02-18T05:57:00;5.57;;;3.80;;
10882;SDS011;5494;51.796;10.952;2023-02-18T05:59:28;6.50;;;4.03;;
10882;SDS011;5494;51.796;10.952;2023-02-18T06:01:57;7.93;;;4.30;;
10882;SDS011;5494;51.796;10.952;2023-02-18T06:04:25;5.87;;;4.13;;
10882;SDS011;5494;51.796;10.952;2023-02-18T06:06:53;10.13;;;4.37;;
10882;SDS011;5494;51.796;10.952;2023-02-18T06:09:21;7.23;;;3.80;;
10882;SDS011;5494;51.796;10.952;2023-02-18T06:11:49;6.27;;;4.27;;
10882;SDS011;5494;51.796;10.952;2023-02-18T06:14:19;5.33;;;3.80;;
10882;SDS011;5494;51.796;10.952;2023-02-18T06:16:47;5.57;;;3.97;;
10882;SDS011;5494;51.796;10.952;2023-02-18T06:19:15;6.70;;;4.00;;
10882;SDS011;5494;51.796;10.952;2023-02-18T06:21:42;5.40;;;3.73;;
10882;SDS011;5494;51.796;10.952;2023-02-18T06:24:13;7.50;;;4.20;;
10882;SDS011;5494;51.796;10.952;2023-02-18T06:26:41;7.67;;;4.47;;
10882;SDS011;5494;51.796;10.952;2023-02-18T06:29:09;7.23;;;4.27;;
10882;SDS011;5494;51.796;10.952;2023-02-18T06:31:38;5.47;;;4.03;;
10882;SDS011;5494;51.796;10.952;2023-02-18T06:34:09;5.63;;;3.97;;
10882;SDS011;5494;51.796;10.952;2023-02-18T06:36:37;4.77;;;3.53;;
10882;SDS011;5494;51.796;10.952;2023-02-18T06:39:05;6.13;;;4.03;;
10882;SDS011;5494;51.796;10.952;2023-02-18T06:41:34;6.37;;;3.87;;
10882;SDS011;5494;51.796;10.952;2023-02-18T06:44:02;9.57;;;5.67;;
10882;SDS011;5494;51.796;10.952;2023-02-18T06:46:31;6.37;;;4.13;;
10882;SDS011;5494;51.796;10.952;2023-02-18T06:49:00;7.60;;;4.83;;
10882;SDS011;5494;51.796;10.952;2023-02-18T06:51:28;8.43;;;4.50;;
10882;SDS011;5494;51.796;10.952;2023-02-18T06:53:56;7.00;;;5.00;;
10882;SDS011;5494;51.796;10.952;2023-02-18T06:56:24;8.00;;;4.60;;
10882;SDS011;5494;51.796;10.952;2023-02-18T06:58:52;10.70;;;5.53;;
10882;SDS011;5494;51.796;10.952;2023-02-18T07:01:23;5.77;;;4.07;;
10882;SDS011;5494;51.796;10.952;2023-02-18T07:03:51;8.57;;;5.20;;
10882;SDS011;5494;51.796;10.952;2023-02-18T07:06:21;11.60;;;6.47;;
10882;SDS011;5494;51.796;10.952;2023-02-18T07:08:49;10.27;;;5.93;;
10882;SDS011;5494;51.796;10.952;2023-02-18T07:11:17;8.03;;;4.67;;
10882;SDS011;5494;51.796;10.952;2023-02-18T07:13:45;10.60;;;6.53;;
10882;SDS011;5494;51.796;10.952;2023-02-18T07:16:13;7.00;;;4.67;;
10882;SDS011;5494;51.796;10.952;2023-02-18T07:18:41;4.77;;;3.47;;
10882;SDS011;5494;51.796;10.952;2023-02-18T07:21:08;5.23;;;3.50;;
10882;SDS011;5494;51.796;10.952;2023-02-18T07:23:38;5.47;;;3.80;;
10882;SDS011;5494;51.796;10.952;2023-02-18T07:26:07;4.17;;;3.37;;
10882;SDS011;5494;51.796;10.952;2023-02-18T07:28:38;4.50;;;3.27;;
10882;SDS011;5494;51.796;10.952;2023-02-18T07:31:06;3.90;;;2.80;;
10882;SDS011;5494;51.796;10.952;2023-02-18T07:33:34;3.30;;;2.93;;
10882;SDS011;5494;51.796;10.952;2023-02-18T07:36:03;2.00;;;1.60;;
10882;SDS011;5494;51.796;10.952;2023-02-18T07:38:32;3.57;;;1.80;;
10882;SDS011;5494;51.796;10.952;2023-02-18T07:41:02;2.23;;;1.73;;
10882;SDS011;5494;51.796;10.952;2023-02-18T07:43:30;1.97;;;1.67;;
10882;SDS011;5494;51.796;10.952;2023-02-18T07:45:58;2.57;;;1.93;;
10882;SDS011;5494;51.796;10.952;2023-02-18T07:48:26;2.07;;;1.70;;
10882;SDS011;5494;51.796;10.952;2023-02-18T07:50:54;2.33;;;1.97;;
10882;SDS011;5494;51.796;10.952;2023-02-18T07:53:22;2.17;;;1.60;;
10882;SDS011;5494;51.796;10.952;2023-02-18T07:55:50;2.23;;;1.57;;
10882;SDS011;5494;51.796;10.952;2023-02-18T07:58:20;1.93;;;1.43;;
10882;SDS011;5494;51.796;10.952;2023-02-18T08:00:50;1.30;;;1.10;;
10882;SDS011;5494;51.796;10.952;2023-02-18T08:03:20;1.10;;;1.00;;
10882;SDS011;5494;51.796;10.952;2023-02-18T08:05:50;1.30;;;0.93;;
10882;SDS011;5494;51.796;10.952;2023-02-18T08:08:20;0.67;;;0.60;;
10882;SDS011;5494;51.796;10.952;2023-02-18T08:10:50;0.90;;;0.70;;
10882;SDS011;5494;51.796;10.952;2023-02-18T08:13:22;1.60;;;0.90;;
10882;SDS011;5494;51.796;10.952;2023-02-18T08:15:53;1.30;;;1.00;;
10882;SDS011;5494;51.796;10.952;2023-02-18T08:18:22;1.27;;;0.83;;
10882;SDS011;5494;51.796;10.952;2023-02-18T08:20:52;2.00;;;1.10;;
10882;SDS011;5494;51.796;10.952;2023-02-18T08:23:21;1.43;;;0.77;;
10882;SDS011;5494;51.796;10.952;2023-02-18T08:25:51;0.37;;;0.30;;
10882;SDS011;5494;51.796;10.952;2023-02-18T08:28:21;0.50;;;0.47;;
10882;SDS011;5494;51.796;10.952;2023-02-18T08:30:51;0.20;;;0.20;;
10882;SDS011;5494;51.796;10.952;2023-02-18T08:33:21;0.83;;;0.10;;
10882;SDS011;5494;51.796;10.952;2023-02-18T08:35:50;0.10;;;0.10;;
10882;SDS011;5494;51.796;10.952;2023-02-18T08:38:21;0.33;;;0.20;;
10882;SDS011;5494;51.796;10.952;2023-02-18T08:40:50;0.23;;;0.20;;
10882;SDS011;5494;51.796;10.952;2023-02-18T08:43:30;0.30;;;0.30;;
10882;SDS011;5494;51.796;10.952;2023-02-18T08:45:58;0.50;;;0.50;;
10882;SDS011;5494;51.796;10.952;2023-02-18T08:48:26;0.23;;;0.23;;
10882;SDS011;5494;51.796;10.952;2023-02-18T08:50:55;0.77;;;0.33;;
10882;SDS011;5494;51.796;10.952;2023-02-18T08:53:23;1.37;;;0.40;;
10882;SDS011;5494;51.796;10.952;2023-02-18T08:55:51;0.70;;;0.60;;
10882;SDS011;5494;51.796;10.952;2023-02-18T08:58:19;0.97;;;0.70;;
10882;SDS011;5494;51.796;10.952;2023-02-18T09:00:49;0.77;;;0.47;;
10882;SDS011;5494;51.796;10.952;2023-02-18T09:03:16;0.60;;;0.60;;
10882;SDS011;5494;51.796;10.952;2023-02-18T09:05:44;0.80;;;0.70;;
10882;SDS011;5494;51.796;10.952;2023-02-18T09:08:12;1.00;;;0.80;;
10882;SDS011;5494;51.796;10.952;2023-02-18T09:10:40;0.70;;;0.70;;
10882;SDS011;5494;51.796;10.952;2023-02-18T09:13:11;1.53;;;0.90;;
10882;SDS011;5494;51.796;10.952;2023-02-18T09:15:39;0.37;;;0.33;;
10882;SDS011;5494;51.796;10.952;2023-02-18T09:18:11;1.03;;;0.30;;
10882;SDS011;5494;51.796;10.952;2023-02-18T09:20:39;0.50;;;0.40;;
10882;SDS011;5494;51.796;10.952;2023-02-18T09:23:07;0.60;;;0.50;;
10882;SDS011;5494;51.796;10.952;2023-02-18T09:25:35;0.20;;;0.20;;
10882;SDS011;5494;51.796;10.952;2023-02-18T09:28:06;2.23;;;0.40;;
10882;SDS011;5494;51.796;10.952;2023-02-18T09:30:34;0.40;;;0.40;;
10882;SDS011;5494;51.796;10.952;2023-02-18T09:33:02;0.30;;;0.30;;
10882;SDS011;5494;51.796;10.952;2023-02-18T09:35:31;0.50;;;0.30;;
10882;SDS011;5494;51.796;10.952;2023-02-18T09:37:59;0.27;;;0.27;;
10882;SDS011;5494;51.796;10.952;2023-02-18T09:40:28;0.30;;;0.20;;
10882;SDS011;5494;51.796;10.952;2023-02-18T09:43:01;0.20;;;0.20;;
10882;SDS011;5494;51.796;10.952;2023-02-18T09:45:29;0.30;;;0.30;;
10882;SDS011;5494;51.796;10.952;2023-02-18T09:47:58;0.20;;;0.20;;
10882;SDS011;5494;51.796;10.952;2023-02-18T09:50:32;0.53;;;0.40;;
10882;SDS011;5494;51.796;10.952;2023-02-18T09:53:00;0.90;;;0.60;;
10882;SDS011;5494;51.796;10.952;2023-02-18T09:55:34;0.60;;;0.53;;
10882;SDS011;5494;51.796;10.952;2023-02-18T09:58:07;0.40;;;0.40;;
10882;SDS011;5494;51.796;10.952;2023-02-18T10:00:42;0.93;;;0.70;;
10882;SDS011;5494;51.796;10.952;2023-02-18T10:03:14;0.60;;;0.60;;
10882;SDS011;5494;51.796;10.952;2023-02-18T10:05:55;1.30;;;0.90;;
10882;SDS011;5494;51.796;10.952;2023-02-18T10:08:27;1.53;;;1.10;;
10882;SDS011;5494;51.796;10.952;2023-02-18T10:11:01;0.40;;;0.40;;
10882;SDS011;5494;51.796;10.952;2023-02-18T10:13:31;1.07;;;0.60;;
10882;SDS011;5494;51.796;10.952;2023-02-18T10:16:00;1.27;;;0.40;;
10882;SDS011;5494;51.796;10.952;2023-02-18T10:18:30;0.30;;;0.30;;
10882;SDS011;5494;51.796;10.952;2023-02-18T10:21:10;0.40;;;0.40;;
10882;SDS011;5494;51.796;10.952;2023-02-18T10:23:45;0.70;;;0.40;;
10882;SDS011;5494;51.796;10.952;2023-02-18T10:26:21;0.43;;;0.40;;
10882;SDS011;5494;51.796;10.952;2023-02-18T10:28:49;0.10;;;0.10;;
10882;SDS011;5494;51.796;10.952;2023-02-18T10:31:19;0.50;;;0.40;;
10882;SDS011;5494;51.796;10.952;2023-02-18T10:33:57;0.43;;;0.40;;
10882;SDS011;5494;51.796;10.952;2023-02-18T10:36:36;0.10;;;0.10;;
10882;SDS011;5494;51.796;10.952;2023-02-18T10:39:20;1.60;;;0.30;;
10882;SDS011;5494;51.796;10.952;2023-02-18T10:42:04;0.30;;;0.30;;
10882;SDS011;5494;51.796;10.952;2023-02-18T10:44:47;1.97;;;1.30;;
10882;SDS011;5494;51.796;10.952;2023-02-18T10:47:32;1.00;;;0.90;;
10882;SDS011;5494;51.796;10.952;2023-02-18T10:50:10;0.87;;;0.40;;
10882;SDS011;5494;51.796;10.952;2023-02-18T10:52:54;1.17;;;0.80;;
10882;SDS011;5494;51.796;10.952;2023-02-18T10:55:35;0.70;;;0.70;;
10882;SDS011;5494;51.796;10.952;2023-02-18T11:00:53;0.20;;;0.20;;
10882;SDS011;5494;51.796;10.952;2023-02-18T11:03:22;0.40;;;0.40;;
10882;SDS011;5494;51.796;10.952;2023-02-18T11:05:54;0.40;;;0.30;;
10882;SDS011;5494;51.796;10.952;2023-02-18T11:08:25;0.63;;;0.40;;
10882;SDS011;5494;51.796;10.952;2023-02-18T11:11:10;0.20;;;0.20;;
10882;SDS011;5494;51.796;10.952;2023-02-18T11:13:43;0.20;;;0.20;;
10882;SDS011;5494;51.796;10.952;2023-02-18T11:16:20;0.40;;;0.40;;
10882;SDS011;5494;51.796;10.952;2023-02-18T11:18:49;0.40;;;0.40;;
10882;SDS011;5494;51.796;10.952;2023-02-18T11:21:19;0.53;;;0.50;;
10882;SDS011;5494;51.796;10.952;2023-02-18T11:23:57;0.37;;;0.30;;
10882;SDS011;5494;51.796;10.952;2023-02-18T11:26:35;0.40;;;0.40;;
10882;SDS011;5494;51.796;10.952;2023-02-18T11:29:10;0.40;;;0.40;;
10882;SDS011;5494;51.796;10.952;2023-02-18T11:31:46;0.30;;;0.30;;
10882;SDS011;5494;51.796;10.952;2023-02-18T11:34:19;0.40;;;0.40;;
10882;SDS011;5494;51.796;10.952;2023-02-18T11:36:49;1.03;;;0.30;;
10882;SDS011;5494;51.796;10.952;2023-02-18T11:39:21;0.50;;;0.43;;
10882;SDS011;5494;51.796;10.952;2023-02-18T11:41:53;0.30;;;0.30;;
10882;SDS011;5494;51.796;10.952;2023-02-18T11:44:26;0.40;;;0.40;;
10882;SDS011;5494;51.796;10.952;2023-02-18T11:46:58;0.40;;;0.40;;
10882;SDS011;5494;51.796;10.952;2023-02-18T11:49:33;3.00;;;0.60;;
10882;SDS011;5494;51.796;10.952;2023-02-18T11:52:02;0.40;;;0.40;;
10882;SDS011;5494;51.796;10.952;2023-02-18T11:54:59;2.20;;;1.67;;
10882;SDS011;5494;51.796;10.952;2023-02-18T11:57:29;0.80;;;0.60;;
10882;SDS011;5494;51.796;10.952;2023-02-18T12:00:01;0.80;;;0.50;;
10882;SDS011;5494;51.796;10.952;2023-02-18T12:02:41;0.20;;;0.20;;
10882;SDS011;5494;51.796;10.952;2023-02-18T12:05:10;1.17;;;0.40;;
10882;SDS011;5494;51.796;10.952;2023-02-18T12:07:45;0.50;;;0.50;;
10882;SDS011;5494;51.796;10.952;2023-02-18T12:10:20;0.73;;;0.43;;
10882;SDS011;5494;51.796;10.952;2023-02-18T12:12:55;0.20;;;0.20;;
10882;SDS011;5494;51.796;10.952;2023-02-18T12:15:33;0.57;;;0.43;;
10882;SDS011;5494;51.796;10.952;2023-02-18T12:21:23;0.50;;;0.40;;
10882;SDS011;5494;51.796;10.952;2023-02-18T12:24:18;0.40;;;0.40;;
10882;SDS011;5494;51.796;10.952;2023-02-18T12:27:07;2.00;;;0.47;;
10882;SDS011;5494;51.796;10.952;2023-02-18T12:29:55;0.57;;;0.40;;
10882;SDS011;5494;51.796;10.952;2023-02-18T12:32:59;0.70;;;0.57;;
10882;SDS011;5494;51.796;10.952;2023-02-18T12:35:47;0.50;;;0.50;;
10882;SDS011;5494;51.796;10.952;2023-02-18T12:44:50;1.53;;;0.70;;
10882;SDS011;5494;51.796;10.952;2023-02-18T12:47:48;0.80;;;0.50;;
10882;SDS011;5494;51.796;10.952;2023-02-18T12:50:46;1.10;;;0.63;;
10882;SDS011;5494;51.796;10.952;2023-02-18T12:53:37;1.07;;;0.80;;
10882;SDS011;5494;51.796;10.952;2023-02-18T12:56:36;1.03;;;0.53;;
10882;SDS011;5494;51.796;10.952;2023-02-18T12:59:26;1.13;;;0.60;;
10882;SDS011;5494;51.796;10.952;2023-02-18T13:02:28;0.80;;;0.60;;
10882;SDS011;5494;51.796;10.952;2023-02-18T13:05:23;0.40;;;0.40;;
10882;SDS011;5494;51.796;10.952;2023-02-18T13:08:07;0.50;;;0.50;;
10882;SDS011;5494;51.796;10.952;2023-02-18T13:11:00;0.70;;;0.60;;
10882;SDS011;5494;51.796;10.952;2023-02-18T13:13:45;0.43;;;0.43;;
10882;SDS011;5494;51.796;10.952;2023-02-18T13:16:26;0.50;;;0.50;;
10882;SDS011;5494;51.796;10.952;2023-02-18T13:18:58;0.73;;;0.50;;
10882;SDS011;5494;51.796;10.952;2023-02-18T13:21:33;1.60;;;0.40;;
10882;SDS011;5494;51.796;10.952;2023-02-18T13:24:06;0.40;;;0.40;;
10882;SDS011;5494;51.796;10.952;2023-02-18T13:26:40;0.60;;;0.50;;
10882;SDS011;5494;51.796;10.952;2023-02-18T13:29:18;0.50;;;0.47;;
10882;SDS011;5494;51.796;10.952;2023-02-18T13:32:03;0.33;;;0.33;;
10882;SDS011;5494;51.796;10.952;2023-02-18T13:34:46;0.30;;;0.30;;
10882;SDS011;5494;51.796;10.952;2023-02-18T13:37:25;0.87;;;0.50;;
10882;SDS011;5494;51.796;10.952;2023-02-18T13:40:04;0.37;;;0.37;;
10882;SDS011;5494;51.796;10.952;2023-02-18T13:42:47;0.50;;;0.50;;
10882;SDS011;5494;51.796;10.952;2023-02-18T13:45:25;0.60;;;0.50;;
10882;SDS011;5494;51.796;10.952;2023-02-18T13:48:02;1.53;;;0.53;;
10882;SDS011;5494;51.796;10.952;2023-02-18T13:50:53;4.30;;;2.10;;
10882;SDS011;5494;51.796;10.952;2023-02-18T13:53:30;1.83;;;1.20;;
10882;SDS011;5494;51.796;10.952;2023-02-18T13:56:03;4.20;;;1.97;;
10882;SDS011;5494;51.796;10.952;2023-02-18T13:58:36;0.83;;;0.57;;
10882;SDS011;5494;51.796;10.952;2023-02-18T14:01:19;0.57;;;0.57;;
10882;SDS011;5494;51.796;10.952;2023-02-18T14:03:58;0.30;;;0.30;;
10882;SDS011;5494;51.796;10.952;2023-02-18T14:06:29;0.50;;;0.50;;
10882;SDS011;5494;51.796;10.952;2023-02-18T14:09:27;0.40;;;0.40;;
10882;SDS011;5494;51.796;10.952;2023-02-18T14:12:23;0.80;;;0.63;;
10882;SDS011;5494;51.796;10.952;2023-02-18T14:15:06;0.33;;;0.33;;
10882;SDS011;5494;51.796;10.952;2023-02-18T14:18:22;0.67;;;0.50;;
10882;SDS011;5494;51.796;10.952;2023-02-18T14:21:02;0.80;;;0.33;;
10882;SDS011;5494;51.796;10.952;2023-02-18T14:24:03;0.40;;;0.40;;
10882;SDS011;5494;51.796;10.952;2023-02-18T14:26:35;0.33;;;0.30;;
10882;SDS011;5494;51.796;10.952;2023-02-18T14:29:25;0.40;;;0.40;;
10882;SDS011;5494;51.796;10.952;2023-02-18T14:31:59;0.43;;;0.30;;
10882;SDS011;5494;51.796;10.952;2023-02-18T14:34:43;0.40;;;0.40;;
10882;SDS011;5494;51.796;10.952;2023-02-18T14:38:00;0.50;;;0.30;;
10882;SDS011;5494;51.796;10.952;2023-02-18T14:44:06;0.63;;;0.50;;
10882;SDS011;5494;51.796;10.952;2023-02-18T14:47:01;1.40;;;0.57;;
10882;SDS011;5494;51.796;10.952;2023-02-18T14:49:51;1.40;;;0.60;;
10882;SDS011;5494;51.796;10.952;2023-02-18T14:52:27;0.50;;;0.50;;
10882;SDS011;5494;51.796;10.952;2023-02-18T14:54:59;0.70;;;0.60;;
10882;SDS011;5494;51.796;10.952;2023-02-18T14:57:32;1.23;;;0.53;;
10882;SDS011;5494;51.796;10.952;2023-02-18T15:00:13;0.90;;;0.50;;
10882;SDS011;5494;51.796;10.952;2023-02-18T15:02:46;1.13;;;0.40;;
10882;SDS011;5494;51.796;10.952;2023-02-18T15:05:17;2.20;;;0.60;;
10882;SDS011;5494;51.796;10.952;2023-02-18T15:07:54;0.63;;;0.40;;
10882;SDS011;5494;51.796;10.952;2023-02-18T15:10:35;0.73;;;0.40;;
10882;SDS011;5494;51.796;10.952;2023-02-18T15:13:08;0.40;;;0.40;;
10882;SDS011;5494;51.796;10.952;2023-02-18T15:15:46;0.40;;;0.40;;
10882;SDS011;5494;51.796;10.952;2023-02-18T15:18:20;2.33;;;0.57;;
10882;SDS011;5494;51.796;10.952;2023-02-18T15:20:55;1.40;;;1.20;;
10882;SDS011;5494;51.796;10.952;2023-02-18T15:23:27;2.23;;;2.03;;
10882;SDS011;5494;51.796;10.952;2023-02-18T15:25:57;3.70;;;2.40;;
10882;SDS011;5494;51.796;10.952;2023-02-18T15:28:26;8.40;;;4.73;;
10882;SDS011;5494;51.796;10.952;2023-02-18T15:30:59;1.97;;;1.37;;
10882;SDS011;5494;51.796;10.952;2023-02-18T15:33:29;3.40;;;1.97;;
10882;SDS011;5494;51.796;10.952;2023-02-18T15:36:01;1.00;;;0.90;;
10882;SDS011;5494;51.796;10.952;2023-02-18T15:38:32;0.80;;;0.80;;
10882;SDS011;5494;51.796;10.952;2023-02-18T15:41:00;1.10;;;0.83;;
10882;SDS011;5494;51.796;10.952;2023-02-18T15:43:29;1.07;;;0.77;;
10882;SDS011;5494;51.796;10.952;2023-02-18T15:45:58;1.73;;;1.30;;
10882;SDS011;5494;51.796;10.952;2023-02-18T15:48:28;1.50;;;1.00;;